• Join FlightAware (Why Join?)
  • Login
  • US Flag 
10:52AM EDT


 

Airport Tracker/Info


-or-


 

Live Flight TrackerFlight Track Log ✈ FIN666 ✈ 28-Oct-2013 ✈ EKCH / CPH - EFHK / HEL

Flight Track Log - Related Links

Times and Time Zones

All times are in EDT time to prevent confusion due to time zone crossing. See the FIN666 flight status page for this flight to view local times or setup timezone preferences in your user account.

Time Position Orientation Groundspeed Altitude Reporting Facility
EDT Latitude Longitude Course Direction KTS MPH feet Rate Location/Type
08:22AM 55.8668 13.1710 49° Northeast  Level Estimated
08:23AM 55.9493 13.3441 50° Northeast  Level Estimated
08:24AM 56.0316 13.5180 50° Northeast  Level Estimated
08:25AM 56.1136 13.6926 50° Northeast  Level Estimated
08:26AM 56.1953 13.8679 50° Northeast  Level Estimated
08:27AM 56.2769 14.0440 50° Northeast  Level Estimated
08:28AM 56.3581 14.2209 50° Northeast  Level Estimated
08:29AM 56.4391 14.3985 50° Northeast  Level Estimated
08:30AM 56.5199 14.5768 51° Northeast  Level Estimated
08:31AM 56.6003 14.7559 51° Northeast  Level Estimated
08:32AM 56.6806 14.9358 51° Northeast  Level Estimated
08:33AM 56.7606 15.1165 51° Northeast  Level Estimated
08:34AM 56.8403 15.2979 51° Northeast  Level Estimated
08:35AM 56.9210 15.4830 51° Northeast  Level Estimated
08:36AM 57.0014 15.6690 51° Northeast  Level Estimated
08:37AM 57.0816 15.8557 52° Northeast  Level Estimated
08:38AM 57.1615 16.0433 52° Northeast  Level Estimated
08:39AM 57.2411 16.2316 52° Northeast  Level Estimated
08:40AM 57.3204 16.4208 52° Northeast  Level Estimated
08:41AM 57.3995 16.6108 52° Northeast  Level Estimated
08:42AM 57.4782 16.8016 52° Northeast  Level Estimated
08:43AM 57.5567 16.9933 53° Northeast  Level Estimated
08:44AM 57.6349 17.1857 53° Northeast  Level Estimated
08:45AM 57.7128 17.3790 53° Northeast  Level Estimated
08:46AM 57.7904 17.5731 53° Northeast  Level Estimated
08:47AM 57.8677 17.7681 53° Northeast  Level Estimated
08:48AM 57.9446 17.9639 53° Northeast  Level Estimated
08:49AM 58.0213 18.1605 54° Northeast  Level Estimated
08:50AM 58.0977 18.3580 54° Northeast  Level Estimated
08:51AM 58.1738 18.5563 54° Northeast  Level Estimated
08:52AM 58.2496 18.7555 54° Northeast  Level Estimated
08:53AM 58.3250 18.9555 54° Northeast  Level Estimated
08:54AM 58.4002 19.1564 54° Northeast  Level Estimated
08:55AM 58.4750 19.3582 55° Northeast  Level Estimated
08:56AM 58.5495 19.5608 55° Northeast  Level Estimated
08:57AM 58.6237 19.7642 55° Northeast  Level Estimated
08:58AM 58.6976 19.9685 55° Northeast  Level Estimated
08:59AM 58.7711 20.1737 55° Northeast  Level Estimated
09:00AM 58.8443 20.3798 55° Northeast  Level Estimated
09:01AM 58.9172 20.5867 56° Northeast  Level Estimated
09:02AM 58.9910 20.7980 56° Northeast  Level Estimated
09:03AM 59.0644 21.0101 56° Northeast  Level Estimated
09:04AM 59.1374 21.2231 56° Northeast  Level Estimated
09:05AM 59.2101 21.4370 56° Northeast  Level Estimated
09:06AM 59.2824 21.6519 57° Northeast  Level Estimated
09:07AM 59.3544 21.8676 57° Northeast  Level Estimated
09:08AM 59.4261 22.0843 57° Northeast  Level Estimated
09:09AM 59.4973 22.3019 57° Northeast  Level Estimated
09:10AM 59.5682 22.5204 57° Northeast  Level Estimated
09:11AM 59.6388 22.7398 57° Northeast  Level Estimated
09:12AM 59.7090 22.9602 58° Northeast  Level Estimated
09:13AM 59.7788 23.1815 58° Northeast  Level Estimated
09:14AM 59.8482 23.4037 58° Northeast  Level Estimated
09:15AM 59.9172 23.6268 58° Northeast  Level Estimated
09:16AM 59.9859 23.8508 58° Northeast  Level Estimated
09:17AM 60.0542 24.0758 59° Northeast  Level Estimated
09:18AM 60.1221 24.3017 59° Northeast  Level Estimated
09:19AM 60.1897 24.5286 59° Northeast  Level Estimated
09:20AM 60.2568 24.7563 59° Northeast  Level Estimated
09:21AM 60.3172 24.9633 59° Northeast  Level Estimated
09:22AM 60.3172 24.9633 37° Northeast  Level Estimated
09:23AM 60.3172 24.9633 37° Northeast  Level Estimated
09:24AM 60.3172 24.9633 37° Northeast  Level Estimated
09:25AM 60.3172 24.9633 37° Northeast  Level Estimated
09:26AM 60.3172 24.9633 37° Northeast  Level Estimated
09:27AM 60.3172 24.9633 37° Northeast  Level Estimated
09:28AM 60.3172 24.9633 37° Northeast  Level Estimated
09:29AM 60.3172 24.9633 37° Northeast  Level Estimated
09:30AM 60.3172 24.9633 37° Northeast  Level Estimated
09:31AM 60.3172 24.9633 37° Northeast  Level Estimated
09:32AM 60.3172 24.9633 37° Northeast  Level Estimated
09:33AM 60.3172 24.9633 37° Northeast  Level Estimated
09:34AM 60.3172 24.9633 37° Northeast  Level Estimated
09:35AM 60.3172 24.9633 37° Northeast  Level Estimated